createdAt,value
2018-08-20T00:03:53.710Z,41.83
2018-08-20T00:06:22.248Z,42.12
2018-08-20T00:08:50.461Z,42.35
2018-08-20T00:11:18.631Z,41.90
2018-08-20T00:13:47.560Z,42.22
2018-08-20T00:16:15.726Z,42.73
2018-08-20T00:18:43.781Z,42.22
2018-08-20T00:21:11.859Z,42.16
2018-08-20T00:23:40.036Z,43.24
2018-08-20T00:26:08.211Z,43.72
2018-08-20T00:28:36.385Z,44.22
2018-08-20T00:31:04.733Z,44.22
2018-08-20T00:33:32.872Z,43.59
2018-08-20T00:36:01.023Z,43.64
2018-08-20T00:38:29.158Z,42.91
2018-08-20T00:40:57.311Z,43.77
2018-08-20T00:43:25.656Z,42.77
2018-08-20T00:45:53.934Z,43.86
2018-08-20T00:48:22.012Z,44.56
2018-08-20T00:50:50.095Z,44.04
2018-08-20T00:53:18.221Z,44.51
2018-08-20T00:55:46.324Z,44.55
2018-08-20T00:58:14.991Z,44.03
2018-08-20T01:00:43.300Z,44.20
2018-08-20T01:03:11.456Z,44.78
2018-08-20T01:05:39.561Z,44.71
2018-08-20T01:08:09.987Z,45.56
2018-08-20T01:10:38.085Z,44.10
2018-08-20T01:13:06.436Z,44.83
2018-08-20T01:15:36.214Z,44.39
2018-08-20T01:18:04.340Z,45.60
2018-08-20T01:20:33.755Z,44.01
2018-08-20T01:23:01.879Z,44.89
2018-08-20T01:25:30.581Z,45.55
2018-08-20T01:27:58.692Z,44.20
2018-08-20T01:30:26.831Z,45.00
2018-08-20T01:33:03.299Z,45.76
2018-08-20T01:35:32.087Z,45.56
2018-08-20T01:38:00.519Z,45.75
2018-08-20T01:40:29.484Z,46.36
2018-08-20T01:42:57.574Z,46.17
2018-08-20T01:45:26.212Z,45.72
2018-08-20T01:47:54.971Z,45.88
2018-08-20T01:50:23.596Z,46.09
2018-08-20T01:52:51.892Z,45.49
2018-08-20T01:55:20.050Z,45.64
2018-08-20T01:57:48.253Z,45.74
2018-08-20T02:00:16.382Z,47.19
2018-08-20T02:02:48.691Z,46.56
2018-08-20T02:05:16.777Z,46.27
2018-08-20T02:07:44.913Z,47.23
2018-08-20T02:10:13.015Z,46.05
2018-08-20T02:12:41.872Z,46.31
2018-08-20T02:15:09.983Z,47.19
2018-08-20T02:17:38.804Z,47.43
2018-08-20T02:20:06.950Z,46.13
2018-08-20T02:22:35.351Z,47.35
2018-08-20T02:25:03.412Z,46.27
2018-08-20T02:27:31.685Z,45.86
2018-08-20T02:30:00.147Z,45.81
2018-08-20T02:32:28.220Z,45.87
2018-08-20T02:34:56.299Z,46.88
2018-08-20T02:37:30.580Z,47.18
2018-08-20T02:39:59.601Z,46.77
2018-08-20T02:42:27.722Z,47.25
2018-08-20T02:44:55.824Z,47.91
2018-08-20T02:47:23.919Z,46.65
2018-08-20T02:49:52.025Z,47.16
2018-08-20T02:52:20.115Z,47.23
2018-08-20T02:54:49.197Z,47.10
2018-08-20T02:57:17.336Z,48.09
2018-08-20T02:59:45.948Z,47.72
2018-08-20T03:02:14.049Z,47.42
2018-08-20T03:04:42.125Z,47.45
2018-08-20T03:07:10.838Z,47.22
2018-08-20T03:09:39.044Z,48.02
2018-08-20T03:12:07.222Z,48.75
2018-08-20T03:14:35.555Z,48.24
2018-08-20T03:17:03.689Z,49.03
2018-08-20T03:19:31.879Z,49.23
2018-08-20T03:22:00.286Z,49.32
2018-08-20T03:24:28.407Z,48.76
2018-08-20T03:26:56.539Z,49.08
2018-08-20T03:29:24.632Z,48.74
2018-08-20T03:31:52.843Z,49.00
2018-08-20T03:34:20.945Z,49.86
2018-08-20T03:36:49.148Z,49.58
2018-08-20T03:39:18.923Z,49.70
2018-08-20T03:41:47.135Z,49.92
2018-08-20T03:44:15.275Z,50.44
2018-08-20T03:46:43.719Z,49.22
2018-08-20T03:49:12.026Z,49.80
2018-08-20T03:51:40.654Z,49.82
2018-08-20T03:54:08.754Z,51.01
2018-08-20T03:56:37.366Z,50.76
2018-08-20T03:59:06.347Z,50.80
2018-08-20T04:01:34.536Z,51.16
2018-08-20T04:04:03.254Z,51.37
2018-08-20T04:06:32.398Z,51.60
2018-08-20T04:09:00.481Z,51.13
2018-08-20T04:11:28.551Z,51.06
2018-08-20T04:13:56.672Z,50.84
2018-08-20T04:16:24.770Z,51.32
2018-08-20T04:18:57.877Z,50.77
2018-08-20T04:21:26.121Z,50.90
2018-08-20T04:23:54.220Z,50.99
2018-08-20T04:26:22.344Z,51.61
2018-08-20T04:28:50.470Z,50.33
2018-08-20T04:31:19.031Z,50.38
2018-08-20T04:33:47.287Z,50.70
2018-08-20T04:36:15.635Z,50.24
2018-08-20T04:38:43.780Z,50.99
2018-08-20T04:41:11.852Z,51.58
2018-08-20T04:43:39.971Z,51.56
2018-08-20T04:46:08.684Z,50.84
2018-08-20T04:48:36.831Z,51.53
2018-08-20T04:51:05.155Z,51.13
2018-08-20T04:53:33.200Z,51.23
2018-08-20T04:56:01.567Z,52.40
2018-08-20T04:58:36.111Z,51.50
2018-08-20T05:01:05.150Z,51.70
2018-08-20T05:03:33.211Z,52.36
2018-08-20T05:06:01.323Z,52.48
2018-08-20T05:08:29.540Z,53.56
2018-08-20T05:10:57.659Z,52.67
2018-08-20T05:13:25.785Z,53.81
2018-08-20T05:15:53.930Z,53.49
2018-08-20T05:18:22.018Z,53.69
2018-08-20T05:20:50.119Z,53.39
2018-08-20T05:23:19.183Z,53.07
2018-08-20T05:25:47.342Z,54.17
2018-08-20T05:28:15.543Z,54.14
2018-08-20T05:30:43.719Z,54.27
2018-08-20T05:33:11.950Z,53.75
2018-08-20T05:35:40.187Z,54.62
2018-08-20T05:38:08.250Z,54.01
2018-08-20T05:40:36.399Z,53.99
2018-08-20T05:43:04.459Z,54.20
2018-08-20T05:45:33.138Z,53.35
2018-08-20T05:48:01.202Z,53.19
2018-08-20T05:50:29.556Z,52.81
2018-08-20T05:52:59.183Z,53.52
2018-08-20T05:55:27.302Z,53.93
2018-08-20T05:57:55.374Z,54.96
2018-08-20T06:00:23.596Z,53.36
2018-08-20T06:02:52.016Z,54.27
2018-08-20T06:05:20.287Z,54.44
2018-08-20T06:07:49.355Z,54.26
2018-08-20T06:10:17.384Z,54.47
2018-08-20T06:12:45.806Z,54.51
2018-08-20T06:15:14.673Z,53.24
2018-08-20T06:17:43.105Z,53.78
2018-08-20T06:20:17.477Z,53.52
2018-08-20T06:22:45.972Z,52.84
2018-08-20T06:25:14.595Z,53.51
2018-08-20T06:27:43.378Z,52.34
2018-08-20T06:30:15.717Z,53.26
2018-08-20T06:32:44.167Z,52.92
2018-08-20T06:35:12.637Z,53.01
2018-08-20T06:37:42.620Z,52.15
2018-08-20T06:40:12.683Z,51.51
2018-08-20T06:42:40.983Z,52.14
2018-08-20T06:45:13.469Z,53.50
2018-08-20T06:47:42.358Z,52.44
2018-08-20T06:50:10.469Z,52.75
2018-08-20T06:52:38.934Z,52.49
2018-08-20T06:55:07.141Z,53.12
2018-08-20T06:57:35.267Z,52.89
2018-08-20T07:00:04.516Z,52.37
2018-08-20T07:02:33.268Z,52.04
2018-08-20T07:05:01.851Z,53.45
2018-08-20T07:07:29.996Z,52.48
2018-08-20T07:09:58.118Z,52.44
2018-08-20T07:12:26.233Z,51.90
2018-08-20T07:14:55.071Z,51.61
2018-08-20T07:17:23.467Z,50.89
2018-08-20T07:19:51.526Z,51.44
2018-08-20T07:22:19.645Z,51.05
2018-08-20T07:24:47.917Z,51.16
2018-08-20T07:27:15.978Z,51.37
2018-08-20T07:29:45.000Z,51.28
2018-08-20T07:32:14.611Z,52.05
2018-08-20T07:34:43.870Z,50.82
2018-08-20T07:37:13.088Z,51.34
2018-08-20T07:39:42.907Z,50.43
2018-08-20T07:42:12.462Z,51.05
2018-08-20T07:44:41.740Z,51.35
2018-08-20T07:47:10.806Z,50.59
2018-08-20T07:49:38.910Z,51.28
2018-08-20T07:52:08.179Z,51.70
2018-08-20T07:54:37.377Z,50.93
2018-08-20T07:57:06.672Z,51.37
2018-08-20T07:59:34.823Z,51.46
2018-08-20T08:02:02.949Z,51.70
2018-08-20T08:04:31.074Z,50.35
2018-08-20T08:06:59.942Z,50.56
2018-08-20T08:09:28.303Z,50.63
2018-08-20T08:11:56.661Z,50.19
2018-08-20T08:14:24.920Z,49.94
2018-08-20T08:16:53.018Z,49.16
2018-08-20T08:19:21.123Z,48.07
2018-08-20T08:21:50.106Z,48.76
2018-08-20T08:24:18.214Z,49.84
2018-08-20T08:26:46.953Z,48.50
2018-08-20T08:29:15.180Z,47.75
2018-08-20T08:31:44.386Z,47.63
2018-08-20T08:34:12.443Z,48.43
2018-08-20T08:36:40.583Z,48.29
2018-08-20T08:39:10.466Z,48.21
2018-08-20T08:41:38.945Z,47.72
2018-08-20T08:44:08.002Z,47.34
2018-08-20T08:46:36.160Z,46.42
2018-08-20T08:49:04.262Z,47.16
2018-08-20T08:51:32.470Z,46.04
2018-08-20T08:54:03.393Z,45.85
2018-08-20T08:56:31.535Z,48.07
2018-08-20T08:58:59.649Z,46.57
2018-08-20T09:01:28.427Z,45.70
2018-08-20T09:03:56.600Z,46.69
2018-08-20T09:06:24.739Z,46.43
2018-08-20T09:08:53.256Z,46.77
2018-08-20T09:11:21.646Z,46.44
2018-08-20T09:13:50.617Z,47.17
2018-08-20T09:16:18.803Z,46.76
2018-08-20T09:18:48.099Z,46.48
2018-08-20T09:21:17.371Z,46.57
2018-08-20T09:23:45.470Z,47.15
2018-08-20T09:26:13.570Z,46.31
2018-08-20T09:28:41.685Z,45.94
2018-08-20T09:31:09.899Z,45.47
2018-08-20T09:33:38.010Z,46.31
2018-08-20T09:36:06.078Z,45.87
2018-08-20T09:38:34.199Z,45.83
2018-08-20T09:41:02.345Z,45.31
2018-08-20T09:43:30.711Z,45.19
2018-08-20T09:45:58.779Z,45.89
2018-08-20T09:48:27.232Z,45.04
2018-08-20T09:50:55.303Z,45.84
2018-08-20T09:53:23.487Z,44.67
2018-08-20T09:55:51.553Z,46.01
2018-08-20T09:58:20.481Z,44.49
2018-08-20T10:00:48.828Z,44.53
2018-08-20T10:03:17.372Z,43.97
2018-08-20T10:05:45.529Z,42.97
2018-08-20T10:08:13.751Z,44.37
2018-08-20T10:10:41.973Z,42.99
2018-08-20T10:13:10.062Z,44.54
2018-08-20T10:15:39.454Z,44.00
2018-08-20T10:18:08.281Z,43.40
2018-08-20T10:20:36.358Z,43.32
2018-08-20T10:23:04.996Z,43.21
2018-08-20T10:25:33.166Z,42.44
2018-08-20T10:28:01.276Z,43.53
2018-08-20T10:30:29.449Z,41.94
2018-08-20T10:32:57.616Z,41.71
2018-08-20T10:35:25.731Z,41.50
2018-08-20T10:37:55.979Z,40.88
2018-08-20T10:40:24.099Z,41.71
2018-08-20T10:42:54.827Z,41.25
2018-08-20T10:45:28.437Z,40.89
2018-08-20T10:47:56.733Z,40.86
2018-08-20T10:50:24.832Z,41.32
2018-08-20T10:52:52.938Z,41.44
2018-08-20T10:55:21.119Z,40.67
2018-08-20T10:57:49.433Z,40.51
2018-08-20T11:00:17.711Z,40.53
2018-08-20T11:02:45.890Z,40.91
2018-08-20T11:05:15.559Z,42.04
2018-08-20T11:07:43.638Z,41.89
2018-08-20T11:10:12.259Z,40.91
2018-08-20T11:12:40.378Z,41.29
2018-08-20T11:15:09.979Z,41.11
2018-08-20T11:17:38.322Z,39.69
2018-08-20T11:20:08.965Z,39.95
2018-08-20T11:22:37.123Z,39.33
2018-08-20T11:25:06.246Z,38.52
2018-08-20T11:27:34.495Z,37.36
2018-08-20T11:30:02.642Z,36.93
2018-08-20T11:32:30.835Z,35.91
2018-08-20T11:34:59.117Z,36.04
2018-08-20T11:37:27.375Z,38.22
2018-08-20T11:39:55.514Z,34.70
2018-08-20T11:42:23.807Z,35.14
2018-08-20T11:44:51.914Z,36.03
2018-08-20T11:47:20.911Z,33.84
2018-08-20T11:49:49.334Z,33.00
2018-08-20T11:52:19.263Z,34.76
2018-08-20T11:54:47.428Z,35.05
2018-08-20T11:57:15.560Z,36.15
2018-08-20T11:59:43.785Z,37.16
2018-08-20T12:02:11.957Z,37.79
2018-08-20T12:04:40.158Z,37.79
2018-08-20T12:07:09.580Z,37.57
2018-08-20T12:09:38.103Z,37.71
2018-08-20T12:12:06.778Z,36.98
2018-08-20T12:14:35.381Z,37.02
2018-08-20T12:17:03.525Z,36.39
2018-08-20T12:19:31.600Z,35.53
2018-08-20T12:22:01.596Z,35.21
2018-08-20T12:24:29.778Z,29.16
2018-08-20T12:26:57.951Z,30.67
2018-08-20T12:29:27.189Z,30.58
2018-08-20T12:31:55.436Z,28.70
2018-08-20T12:34:24.710Z,28.79
2018-08-20T12:36:52.822Z,27.29
2018-08-20T12:39:21.681Z,29.23
2018-08-20T12:41:50.258Z,30.16
2018-08-20T12:44:18.657Z,31.29
2018-08-20T12:46:46.846Z,33.12
2018-08-20T12:49:14.962Z,32.12
2018-08-20T12:51:43.302Z,29.56
2018-08-20T12:54:11.548Z,25.40
2018-08-20T12:56:39.787Z,24.38
2018-08-20T12:59:09.411Z,25.05
2018-08-20T13:01:37.667Z,24.30
2018-08-20T13:04:06.215Z,20.06
2018-08-20T13:06:34.477Z,21.69
2018-08-20T13:09:02.761Z,27.30
2018-08-20T13:11:31.009Z,27.44
2018-08-20T13:13:59.326Z,29.27
2018-08-20T13:16:27.573Z,29.06
2018-08-20T13:18:55.873Z,29.96
2018-08-20T13:21:25.178Z,31.39
2018-08-20T13:23:53.350Z,31.47
2018-08-20T13:26:21.482Z,32.35
2018-08-20T13:28:49.691Z,32.50
2018-08-20T13:31:18.800Z,32.49
2018-08-20T13:33:47.156Z,31.72
2018-08-20T13:36:17.048Z,31.23
2018-08-20T13:38:45.475Z,27.55
2018-08-20T13:41:13.625Z,26.28
2018-08-20T13:43:41.788Z,25.51
2018-08-20T13:46:10.229Z,26.06
2018-08-20T13:48:38.443Z,28.47
2018-08-20T13:51:06.781Z,29.93
2018-08-20T13:53:34.896Z,29.59
2018-08-20T13:56:02.985Z,30.57
2018-08-20T13:58:31.148Z,30.53
2018-08-20T14:00:59.401Z,30.71
2018-08-20T14:03:27.513Z,30.74
2018-08-20T14:05:57.006Z,31.55
2018-08-20T14:08:25.227Z,31.05
2018-08-20T14:10:53.495Z,30.15
2018-08-20T14:13:21.718Z,30.60
2018-08-20T14:15:49.863Z,31.52
2018-08-20T14:18:18.073Z,30.84
2018-08-20T14:20:57.056Z,30.30
2018-08-20T14:23:26.543Z,29.53
2018-08-20T14:25:54.789Z,28.93
2018-08-20T14:28:23.661Z,26.24
2018-08-20T14:30:51.758Z,28.83
2018-08-20T14:33:19.862Z,27.86
2018-08-20T14:35:48.382Z,28.34
2018-08-20T14:38:16.837Z,28.00
2018-08-20T14:40:44.980Z,29.08
2018-08-20T14:43:13.167Z,30.08
2018-08-20T14:45:46.643Z,28.03
2018-08-20T14:48:14.928Z,28.31
2018-08-20T14:50:48.105Z,28.29
2018-08-20T14:53:16.192Z,24.00
2018-08-20T14:55:44.412Z,27.58
2018-08-20T14:58:12.498Z,27.13
2018-08-20T15:00:40.686Z,29.02
2018-08-20T15:03:08.915Z,28.21
2018-08-20T15:05:37.956Z,29.57
2018-08-20T15:08:06.223Z,30.86
2018-08-20T15:10:34.280Z,29.42
2018-08-20T15:13:02.528Z,30.12
2018-08-20T15:15:30.763Z,30.14
2018-08-20T15:18:01.026Z,31.39
2018-08-20T15:20:29.108Z,31.79
2018-08-20T15:22:57.430Z,31.71
2018-08-20T15:25:25.479Z,30.23
2018-08-20T15:27:54.779Z,31.65
2018-08-20T15:30:22.984Z,29.01
2018-08-20T15:32:52.023Z,28.25
2018-08-20T15:35:20.154Z,29.91
2018-08-20T15:37:48.739Z,31.04
2018-08-20T15:40:16.858Z,30.90
2018-08-20T15:42:46.119Z,30.41
2018-08-20T15:45:14.227Z,31.56
2018-08-20T15:47:42.730Z,31.45
2018-08-20T15:50:12.168Z,27.92
2018-08-20T15:52:40.375Z,23.68
2018-08-20T15:55:08.571Z,24.52
2018-08-20T15:57:36.882Z,22.01
2018-08-20T16:00:06.614Z,21.79
2018-08-20T16:02:34.812Z,24.83
2018-08-20T16:05:02.893Z,27.74
2018-08-20T16:07:31.078Z,28.29
2018-08-20T16:10:01.992Z,25.06
2018-08-20T16:12:30.216Z,21.28
2018-08-20T16:14:58.344Z,22.29
2018-08-20T16:17:27.207Z,23.03
2018-08-20T16:19:55.648Z,21.99
2018-08-20T16:22:23.999Z,23.52
2018-08-20T16:24:58.368Z,22.38
2018-08-20T16:27:26.511Z,20.07
2018-08-20T16:29:54.706Z,20.07
2018-08-20T16:32:22.798Z,19.59
2018-08-20T16:34:50.970Z,19.32
2018-08-20T16:37:20.778Z,21.09
2018-08-20T16:39:48.901Z,27.18
2018-08-20T16:42:17.870Z,28.41
2018-08-20T16:44:47.346Z,28.96
2018-08-20T16:47:17.989Z,29.26
2018-08-20T16:49:47.748Z,29.47
2018-08-20T16:52:16.053Z,30.15
2018-08-20T16:54:44.289Z,30.38
2018-08-20T16:57:12.553Z,31.48
2018-08-20T16:59:41.010Z,32.07
2018-08-20T17:02:14.632Z,32.46
2018-08-20T17:04:42.819Z,32.91
2018-08-20T17:07:11.462Z,31.93
2018-08-20T17:09:41.721Z,32.48
2018-08-20T17:12:09.920Z,32.04
2018-08-20T17:14:39.485Z,32.81
2018-08-20T17:17:08.343Z,32.68
2018-08-20T17:19:36.474Z,33.45
2018-08-20T17:22:04.615Z,33.21
2018-08-20T17:24:40.221Z,33.90
2018-08-20T17:27:10.079Z,33.66
2018-08-20T17:29:38.435Z,34.43
2018-08-20T17:32:08.675Z,35.04
2018-08-20T17:34:41.230Z,34.93
2018-08-20T17:37:09.595Z,35.73
2018-08-20T17:39:54.386Z,35.39
2018-08-20T17:42:22.681Z,35.73
2018-08-20T17:44:52.183Z,35.08
2018-08-20T17:47:24.563Z,35.16
2018-08-20T17:49:53.558Z,35.54
2018-08-20T17:52:26.896Z,35.44
2018-08-20T17:54:55.422Z,36.38
2018-08-20T17:57:23.507Z,36.70
2018-08-20T17:59:54.023Z,37.02
2018-08-20T18:07:15.484Z,36.97
2018-08-20T18:09:43.550Z,37.84
2018-08-20T18:12:11.714Z,37.54
2018-08-20T18:14:41.093Z,38.16
2018-08-20T18:17:09.843Z,37.57
2018-08-20T18:19:37.950Z,37.77
2018-08-20T18:22:06.041Z,38.48
2018-08-20T18:24:34.169Z,39.16
2018-08-20T18:27:02.397Z,38.83
2018-08-20T18:29:30.610Z,39.96
2018-08-20T18:32:00.388Z,39.06
2018-08-20T18:34:28.560Z,39.01
2018-08-20T18:36:56.648Z,39.30
2018-08-20T18:39:24.905Z,39.70
2018-08-20T18:42:03.980Z,39.71
2018-08-20T18:44:32.245Z,39.88
2018-08-20T18:47:00.424Z,40.40
2018-08-20T18:49:29.182Z,40.59
2018-08-20T18:52:03.726Z,40.37
2018-08-20T18:54:39.682Z,40.97
2018-08-20T18:57:10.686Z,41.09
2018-08-20T18:59:40.012Z,40.85
2018-08-20T19:02:10.575Z,40.77
2018-08-20T19:04:46.885Z,41.41
2018-08-20T19:07:15.892Z,40.74
2018-08-20T19:09:49.558Z,41.32
2018-08-20T19:12:17.894Z,40.89
2018-08-20T19:14:46.163Z,41.01
2018-08-20T19:17:18.557Z,41.14
2018-08-20T19:19:48.147Z,42.10
2018-08-20T19:22:21.679Z,42.35
2018-08-20T19:24:49.863Z,42.25
2018-08-20T19:27:17.917Z,42.06
2018-08-20T19:29:46.593Z,42.45
2018-08-20T19:32:16.094Z,42.21
2018-08-20T19:34:44.219Z,41.92
2018-08-20T19:37:12.373Z,41.95
2018-08-20T19:39:40.598Z,42.62
2018-08-20T19:42:08.834Z,42.71
2018-08-20T19:44:36.984Z,41.96
2018-08-20T19:47:05.102Z,42.82
2018-08-20T19:49:33.270Z,43.26
2018-08-20T19:52:01.606Z,42.99
2018-08-20T19:54:31.838Z,43.15
2018-08-20T19:57:00.106Z,43.26
2018-08-20T19:59:33.673Z,43.62
2018-08-20T20:02:02.256Z,43.38
2018-08-20T20:04:31.778Z,43.32
2018-08-20T20:07:00.097Z,43.63
2018-08-20T20:09:29.214Z,44.40
2018-08-20T20:11:57.715Z,44.42
2018-08-20T20:14:28.682Z,43.91
2018-08-20T20:16:56.766Z,44.50
2018-08-20T20:19:25.391Z,44.89
2018-08-20T20:21:54.421Z,44.83
2018-08-20T20:24:23.367Z,45.01
2018-08-20T20:26:51.443Z,44.80
2018-08-20T20:29:19.885Z,45.39
2018-08-20T20:31:49.303Z,45.48
2018-08-20T20:34:19.347Z,45.55
2018-08-20T20:36:48.035Z,45.53
2018-08-20T20:39:16.988Z,45.85
2018-08-20T20:41:45.538Z,46.09
2018-08-20T20:44:14.148Z,46.10
2018-08-20T20:46:42.487Z,46.13
2018-08-20T20:49:12.773Z,45.20
2018-08-20T20:51:41.023Z,46.74
2018-08-20T20:54:09.303Z,46.69
2018-08-20T20:56:38.980Z,46.07
2018-08-20T20:59:08.449Z,46.02
2018-08-20T21:01:36.742Z,46.58
2018-08-20T21:04:09.482Z,46.80
2018-08-20T21:06:40.833Z,47.55
2018-08-20T21:09:10.225Z,46.81
2018-08-20T21:11:38.505Z,46.98
2018-08-20T21:14:06.668Z,47.27
2018-08-20T21:16:34.896Z,46.83
2018-08-20T21:19:03.794Z,47.48
2018-08-20T21:21:33.944Z,48.08
2018-08-20T21:24:04.447Z,48.03
2018-08-20T21:26:32.747Z,48.08
2018-08-20T21:29:01.308Z,47.16
2018-08-20T21:31:32.030Z,46.99
2018-08-20T21:34:03.588Z,48.29
2018-08-20T21:36:31.619Z,48.61
2018-08-20T21:38:59.723Z,48.49
2018-08-20T21:41:29.922Z,48.16
2018-08-20T21:43:59.867Z,47.65
2018-08-20T21:46:28.256Z,48.58
2018-08-20T21:48:56.613Z,47.65
2018-08-20T21:51:27.244Z,48.82
2018-08-20T21:53:57.206Z,48.58
2018-08-20T21:56:29.935Z,47.51
2018-08-20T21:58:58.061Z,48.49
2018-08-20T22:01:27.430Z,48.54
2018-08-20T22:03:55.970Z,47.81
2018-08-20T22:06:26.839Z,48.37
2018-08-20T22:08:55.296Z,48.60
2018-08-20T22:11:25.568Z,48.34
2018-08-20T22:13:53.662Z,48.83
2018-08-20T22:16:24.972Z,48.38
2018-08-20T22:18:56.056Z,49.44
2018-08-20T22:21:24.773Z,48.58
2018-08-20T22:23:59.246Z,48.40
2018-08-20T22:26:28.614Z,48.56
2018-08-20T22:29:03.414Z,48.32
2018-08-20T22:31:31.813Z,48.73
2018-08-20T22:34:06.414Z,48.70
2018-08-20T22:36:34.727Z,49.07
2018-08-20T22:39:05.462Z,48.88
2018-08-20T22:41:33.577Z,49.39
2018-08-20T22:44:01.765Z,48.76
2018-08-20T22:46:29.875Z,48.91
2018-08-20T22:49:00.117Z,49.73
2018-08-20T22:51:29.217Z,48.99
2018-08-20T22:53:58.853Z,49.96
2018-08-20T22:56:32.707Z,49.37
2018-08-20T22:59:04.398Z,49.93
2018-08-20T23:01:32.488Z,49.74
2018-08-20T23:04:01.527Z,49.85
2018-08-20T23:06:30.124Z,49.66
2018-08-20T23:08:58.548Z,50.20
2018-08-20T23:11:41.754Z,50.29
2018-08-20T23:14:11.478Z,49.57
2018-08-20T23:16:40.869Z,49.44
2018-08-20T23:19:09.660Z,49.66
2018-08-20T23:21:40.996Z,49.78
2018-08-20T23:24:09.593Z,50.43
2018-08-20T23:26:37.859Z,50.45
2018-08-20T23:29:07.630Z,51.08
2018-08-20T23:31:37.235Z,49.73
2018-08-20T23:34:08.678Z,49.76
2018-08-20T23:36:37.304Z,50.31
2018-08-20T23:39:08.815Z,49.66
2018-08-20T23:41:37.141Z,50.29
2018-08-20T23:44:06.280Z,49.76
2018-08-20T23:46:44.688Z,49.53
2018-08-20T23:49:14.302Z,49.94
2018-08-20T23:51:42.566Z,49.97
2018-08-20T23:54:12.752Z,50.01
2018-08-20T23:56:42.242Z,50.56
2018-08-20T23:59:11.372Z,50.63
